sensor_id;sensor_type;location;lat;lon;timestamp;temperature;humidity
65048;DHT22;52089;51.362;-2.384;2022-10-16T00:03:41;12.40;99.30
65048;DHT22;52089;51.362;-2.384;2022-10-16T00:07:23;12.40;99.10
65048;DHT22;52089;51.362;-2.384;2022-10-16T00:11:11;12.40;98.80
65048;DHT22;52089;51.362;-2.384;2022-10-16T00:14:54;12.30;98.90
65048;DHT22;52089;51.362;-2.384;2022-10-16T00:18:36;12.30;98.50
65048;DHT22;52089;51.362;-2.384;2022-10-16T00:22:18;12.20;98.30
65048;DHT22;52089;51.362;-2.384;2022-10-16T00:26:03;12.10;98.90
65048;DHT22;52089;51.362;-2.384;2022-10-16T00:29:49;12.00;99.60
65048;DHT22;52089;51.362;-2.384;2022-10-16T00:33:30;12.00;99.90
65048;DHT22;52089;51.362;-2.384;2022-10-16T00:37:13;12.00;99.90
65048;DHT22;52089;51.362;-2.384;2022-10-16T00:40:55;11.90;99.90
65048;DHT22;52089;51.362;-2.384;2022-10-16T00:44:57;11.90;99.90
65048;DHT22;52089;51.362;-2.384;2022-10-16T00:48:39;11.80;99.90
65048;DHT22;52089;51.362;-2.384;2022-10-16T00:52:21;11.80;99.90
65048;DHT22;52089;51.362;-2.384;2022-10-16T01:00:28;11.70;99.90
65048;DHT22;52089;51.362;-2.384;2022-10-16T01:04:10;11.60;99.90
65048;DHT22;52089;51.362;-2.384;2022-10-16T01:08:12;11.60;99.90
65048;DHT22;52089;51.362;-2.384;2022-10-16T01:12:06;11.50;99.90
65048;DHT22;52089;51.362;-2.384;2022-10-16T01:16:11;11.50;99.90
65048;DHT22;52089;51.362;-2.384;2022-10-16T01:20:50;11.40;99.90
65048;DHT22;52089;51.362;-2.384;2022-10-16T01:24:40;11.30;99.90
65048;DHT22;52089;51.362;-2.384;2022-10-16T01:28:27;11.30;99.90
65048;DHT22;52089;51.362;-2.384;2022-10-16T01:32:36;11.30;99.90
65048;DHT22;52089;51.362;-2.384;2022-10-16T01:36:26;11.30;99.80
65048;DHT22;52089;51.362;-2.384;2022-10-16T01:40:12;11.30;99.70
65048;DHT22;52089;51.362;-2.384;2022-10-16T01:44:05;11.20;99.60
65048;DHT22;52089;51.362;-2.384;2022-10-16T01:47:48;11.20;99.60
65048;DHT22;52089;51.362;-2.384;2022-10-16T01:51:32;11.20;99.60
65048;DHT22;52089;51.362;-2.384;2022-10-16T01:55:20;11.10;99.90
65048;DHT22;52089;51.362;-2.384;2022-10-16T01:59:10;11.10;99.70
65048;DHT22;52089;51.362;-2.384;2022-10-16T02:02:54;11.10;99.80
65048;DHT22;52089;51.362;-2.384;2022-10-16T02:06:36;11.00;99.80
65048;DHT22;52089;51.362;-2.384;2022-10-16T02:10:18;11.00;99.90
65048;DHT22;52089;51.362;-2.384;2022-10-16T02:14:07;11.00;99.90
65048;DHT22;52089;51.362;-2.384;2022-10-16T02:17:48;11.00;99.90
65048;DHT22;52089;51.362;-2.384;2022-10-16T02:21:46;10.90;99.90
65048;DHT22;52089;51.362;-2.384;2022-10-16T02:25:35;11.00;99.90
65048;DHT22;52089;51.362;-2.384;2022-10-16T02:29:23;11.00;99.90
65048;DHT22;52089;51.362;-2.384;2022-10-16T02:33:08;11.10;99.90
65048;DHT22;52089;51.362;-2.384;2022-10-16T02:36:52;11.10;99.90
65048;DHT22;52089;51.362;-2.384;2022-10-16T02:40:34;11.00;99.90
65048;DHT22;52089;51.362;-2.384;2022-10-16T02:44:17;11.00;99.90
65048;DHT22;52089;51.362;-2.384;2022-10-16T02:48:04;10.90;99.90
65048;DHT22;52089;51.362;-2.384;2022-10-16T02:51:46;10.90;99.90
65048;DHT22;52089;51.362;-2.384;2022-10-16T02:59:18;10.80;99.90
65048;DHT22;52089;51.362;-2.384;2022-10-16T03:03:01;10.80;99.90
65048;DHT22;52089;51.362;-2.384;2022-10-16T03:06:42;10.80;99.90
65048;DHT22;52089;51.362;-2.384;2022-10-16T03:10:24;10.70;99.90
65048;DHT22;52089;51.362;-2.384;2022-10-16T03:14:06;10.80;99.90
65048;DHT22;52089;51.362;-2.384;2022-10-16T03:17:48;10.70;99.90
65048;DHT22;52089;51.362;-2.384;2022-10-16T03:21:29;10.70;99.90
65048;DHT22;52089;51.362;-2.384;2022-10-16T03:25:11;10.70;99.90
65048;DHT22;52089;51.362;-2.384;2022-10-16T03:28:53;10.70;99.90
65048;DHT22;52089;51.362;-2.384;2022-10-16T03:32:35;10.60;99.90
65048;DHT22;52089;51.362;-2.384;2022-10-16T03:36:22;10.60;99.90
65048;DHT22;52089;51.362;-2.384;2022-10-16T03:40:04;10.50;99.90
65048;DHT22;52089;51.362;-2.384;2022-10-16T03:43:46;10.50;99.90
65048;DHT22;52089;51.362;-2.384;2022-10-16T03:47:28;10.50;99.90
65048;DHT22;52089;51.362;-2.384;2022-10-16T03:51:10;10.50;99.90
65048;DHT22;52089;51.362;-2.384;2022-10-16T03:54:52;10.60;99.90
65048;DHT22;52089;51.362;-2.384;2022-10-16T03:58:33;10.50;99.90
65048;DHT22;52089;51.362;-2.384;2022-10-16T04:02:15;10.50;99.90
65048;DHT22;52089;51.362;-2.384;2022-10-16T04:05:57;10.60;99.90
65048;DHT22;52089;51.362;-2.384;2022-10-16T04:09:39;10.60;99.90
65048;DHT22;52089;51.362;-2.384;2022-10-16T04:13:21;10.60;99.90
65048;DHT22;52089;51.362;-2.384;2022-10-16T04:17:03;10.50;99.90
65048;DHT22;52089;51.362;-2.384;2022-10-16T04:20:45;10.50;99.90
65048;DHT22;52089;51.362;-2.384;2022-10-16T04:24:26;10.40;99.90
65048;DHT22;52089;51.362;-2.384;2022-10-16T04:28:08;10.30;99.90
65048;DHT22;52089;51.362;-2.384;2022-10-16T04:31:50;10.30;99.90
65048;DHT22;52089;51.362;-2.384;2022-10-16T04:35:32;10.20;99.90
65048;DHT22;52089;51.362;-2.384;2022-10-16T04:39:13;10.20;99.90
65048;DHT22;52089;51.362;-2.384;2022-10-16T04:42:55;10.10;99.90
65048;DHT22;52089;51.362;-2.384;2022-10-16T04:46:37;10.10;99.90
65048;DHT22;52089;51.362;-2.384;2022-10-16T04:50:19;10.00;99.90
65048;DHT22;52089;51.362;-2.384;2022-10-16T04:54:01;10.00;99.90
65048;DHT22;52089;51.362;-2.384;2022-10-16T04:57:42;10.00;99.90
65048;DHT22;52089;51.362;-2.384;2022-10-16T05:01:24;9.90;99.90
65048;DHT22;52089;51.362;-2.384;2022-10-16T05:05:06;9.90;99.90
65048;DHT22;52089;51.362;-2.384;2022-10-16T05:08:48;9.90;99.90
65048;DHT22;52089;51.362;-2.384;2022-10-16T05:12:30;9.80;99.90
65048;DHT22;52089;51.362;-2.384;2022-10-16T05:16:12;9.80;99.90
65048;DHT22;52089;51.362;-2.384;2022-10-16T05:19:54;9.80;99.90
65048;DHT22;52089;51.362;-2.384;2022-10-16T05:23:36;9.70;99.90
65048;DHT22;52089;51.362;-2.384;2022-10-16T05:27:17;9.70;99.90
65048;DHT22;52089;51.362;-2.384;2022-10-16T05:31:06;9.70;99.90
65048;DHT22;52089;51.362;-2.384;2022-10-16T05:34:48;9.60;99.90
65048;DHT22;52089;51.362;-2.384;2022-10-16T05:38:32;9.60;99.90
65048;DHT22;52089;51.362;-2.384;2022-10-16T05:42:13;9.60;99.90
65048;DHT22;52089;51.362;-2.384;2022-10-16T05:46:02;9.60;99.90
65048;DHT22;52089;51.362;-2.384;2022-10-16T05:49:44;9.50;99.90
65048;DHT22;52089;51.362;-2.384;2022-10-16T05:53:28;9.50;99.90
65048;DHT22;52089;51.362;-2.384;2022-10-16T05:57:09;9.50;99.90
65048;DHT22;52089;51.362;-2.384;2022-10-16T06:01:18;9.50;99.90
65048;DHT22;52089;51.362;-2.384;2022-10-16T06:05:00;9.50;99.90
65048;DHT22;52089;51.362;-2.384;2022-10-16T06:08:43;9.50;99.90
65048;DHT22;52089;51.362;-2.384;2022-10-16T06:12:26;9.50;99.90
65048;DHT22;52089;51.362;-2.384;2022-10-16T06:16:10;9.40;99.90
65048;DHT22;52089;51.362;-2.384;2022-10-16T06:19:52;9.30;99.90
65048;DHT22;52089;51.362;-2.384;2022-10-16T06:23:33;9.30;99.90
65048;DHT22;52089;51.362;-2.384;2022-10-16T06:27:15;9.30;99.90
65048;DHT22;52089;51.362;-2.384;2022-10-16T06:31:01;9.10;99.90
65048;DHT22;52089;51.362;-2.384;2022-10-16T06:34:48;9.10;99.90
65048;DHT22;52089;51.362;-2.384;2022-10-16T06:38:31;9.10;99.90
65048;DHT22;52089;51.362;-2.384;2022-10-16T06:42:12;9.00;99.90
65048;DHT22;52089;51.362;-2.384;2022-10-16T06:45:55;9.10;99.90
65048;DHT22;52089;51.362;-2.384;2022-10-16T06:49:37;9.00;99.90
65048;DHT22;52089;51.362;-2.384;2022-10-16T06:53:19;9.00;99.90
65048;DHT22;52089;51.362;-2.384;2022-10-16T06:57:01;9.00;99.90
65048;DHT22;52089;51.362;-2.384;2022-10-16T07:00:43;9.00;99.90
65048;DHT22;52089;51.362;-2.384;2022-10-16T07:04:25;9.10;99.90
65048;DHT22;52089;51.362;-2.384;2022-10-16T07:08:07;9.10;99.90
65048;DHT22;52089;51.362;-2.384;2022-10-16T07:11:49;9.20;99.90
65048;DHT22;52089;51.362;-2.384;2022-10-16T07:15:31;9.20;99.90
65048;DHT22;52089;51.362;-2.384;2022-10-16T07:19:14;9.30;99.90
65048;DHT22;52089;51.362;-2.384;2022-10-16T07:22:57;9.40;99.90
65048;DHT22;52089;51.362;-2.384;2022-10-16T07:26:39;9.40;99.90
65048;DHT22;52089;51.362;-2.384;2022-10-16T07:30:20;9.50;99.90
65048;DHT22;52089;51.362;-2.384;2022-10-16T07:34:02;9.50;99.90
65048;DHT22;52089;51.362;-2.384;2022-10-16T07:37:45;9.60;99.90
65048;DHT22;52089;51.362;-2.384;2022-10-16T07:41:27;9.60;99.90
65048;DHT22;52089;51.362;-2.384;2022-10-16T07:45:09;9.70;99.90
65048;DHT22;52089;51.362;-2.384;2022-10-16T07:48:52;9.80;99.90
65048;DHT22;52089;51.362;-2.384;2022-10-16T07:52:34;9.90;99.90
65048;DHT22;52089;51.362;-2.384;2022-10-16T07:56:16;10.10;99.90
65048;DHT22;52089;51.362;-2.384;2022-10-16T07:59:58;10.40;99.90
65048;DHT22;52089;51.362;-2.384;2022-10-16T08:03:44;10.80;99.90
65048;DHT22;52089;51.362;-2.384;2022-10-16T08:07:26;11.30;99.90
65048;DHT22;52089;51.362;-2.384;2022-10-16T08:11:09;11.70;99.90
65048;DHT22;52089;51.362;-2.384;2022-10-16T08:14:51;12.20;99.90
65048;DHT22;52089;51.362;-2.384;2022-10-16T08:18:33;12.70;99.90
65048;DHT22;52089;51.362;-2.384;2022-10-16T08:22:16;13.30;99.90
65048;DHT22;52089;51.362;-2.384;2022-10-16T08:26:04;13.80;99.90
65048;DHT22;52089;51.362;-2.384;2022-10-16T08:29:48;14.30;99.90
65048;DHT22;52089;51.362;-2.384;2022-10-16T08:33:30;14.70;99.90
65048;DHT22;52089;51.362;-2.384;2022-10-16T08:37:12;15.10;99.90
65048;DHT22;52089;51.362;-2.384;2022-10-16T08:52:33;16.50;97.60
65048;DHT22;52089;51.362;-2.384;2022-10-16T08:56:17;16.90;99.90
65048;DHT22;52089;51.362;-2.384;2022-10-16T09:00:08;17.30;99.90
65048;DHT22;52089;51.362;-2.384;2022-10-16T09:12:08;18.30;91.90
65048;DHT22;52089;51.362;-2.384;2022-10-16T09:15:55;18.60;81.80
65048;DHT22;52089;51.362;-2.384;2022-10-16T09:20:03;19.00;92.40
65048;DHT22;52089;51.362;-2.384;2022-10-16T09:23:57;19.40;76.80
65048;DHT22;52089;51.362;-2.384;2022-10-16T09:27:39;19.70;82.40
65048;DHT22;52089;51.362;-2.384;2022-10-16T09:31:22;20.00;85.40
65048;DHT22;52089;51.362;-2.384;2022-10-16T09:35:16;20.30;84.00
65048;DHT22;52089;51.362;-2.384;2022-10-16T09:39:07;20.60;80.60
65048;DHT22;52089;51.362;-2.384;2022-10-16T09:47:05;21.30;70.20
65048;DHT22;52089;51.362;-2.384;2022-10-16T09:51:02;21.70;74.30
65048;DHT22;52089;51.362;-2.384;2022-10-16T09:54:56;22.10;68.80
65048;DHT22;52089;51.362;-2.384;2022-10-16T09:58:38;22.30;66.80
65048;DHT22;52089;51.362;-2.384;2022-10-16T10:02:35;22.70;71.50
65048;DHT22;52089;51.362;-2.384;2022-10-16T10:06:33;23.20;64.60
65048;DHT22;52089;51.362;-2.384;2022-10-16T10:10:33;23.80;64.00
65048;DHT22;52089;51.362;-2.384;2022-10-16T10:18:17;24.90;61.40
65048;DHT22;52089;51.362;-2.384;2022-10-16T10:22:00;25.40;60.50
65048;DHT22;52089;51.362;-2.384;2022-10-16T10:29:53;26.20;55.70
65048;DHT22;52089;51.362;-2.384;2022-10-16T10:53:44;27.70;50.60
65048;DHT22;52089;51.362;-2.384;2022-10-16T11:01:39;27.30;42.90
65048;DHT22;52089;51.362;-2.384;2022-10-16T11:05:40;27.10;46.20
65048;DHT22;52089;51.362;-2.384;2022-10-16T11:09:43;27.10;48.80
65048;DHT22;52089;51.362;-2.384;2022-10-16T11:13:37;27.50;44.80
65048;DHT22;52089;51.362;-2.384;2022-10-16T11:17:31;27.80;47.30
65048;DHT22;52089;51.362;-2.384;2022-10-16T11:21:19;27.80;42.70
65048;DHT22;52089;51.362;-2.384;2022-10-16T11:25:25;27.30;44.10
65048;DHT22;52089;51.362;-2.384;2022-10-16T11:29:15;26.80;43.30
65048;DHT22;52089;51.362;-2.384;2022-10-16T11:36:53;27.00;45.20
65048;DHT22;52089;51.362;-2.384;2022-10-16T11:40:39;27.50;45.30
65048;DHT22;52089;51.362;-2.384;2022-10-16T11:52:44;28.30;41.30
65048;DHT22;52089;51.362;-2.384;2022-10-16T11:56:30;28.40;40.50
65048;DHT22;52089;51.362;-2.384;2022-10-16T12:00:23;28.10;42.20
65048;DHT22;52089;51.362;-2.384;2022-10-16T12:08:12;27.70;41.30
65048;DHT22;52089;51.362;-2.384;2022-10-16T12:11:55;27.10;41.60
65048;DHT22;52089;51.362;-2.384;2022-10-16T12:15:37;26.30;42.00
65048;DHT22;52089;51.362;-2.384;2022-10-16T12:19:39;25.80;44.00
65048;DHT22;52089;51.362;-2.384;2022-10-16T12:23:21;25.40;43.70
65048;DHT22;52089;51.362;-2.384;2022-10-16T12:27:30;25.30;45.60
65048;DHT22;52089;51.362;-2.384;2022-10-16T12:31:12;25.70;45.10
65048;DHT22;52089;51.362;-2.384;2022-10-16T12:34:54;25.90;43.70
65048;DHT22;52089;51.362;-2.384;2022-10-16T12:38:50;25.20;42.90
65048;DHT22;52089;51.362;-2.384;2022-10-16T12:42:34;24.30;45.20
65048;DHT22;52089;51.362;-2.384;2022-10-16T12:49:59;23.20;48.10
65048;DHT22;52089;51.362;-2.384;2022-10-16T12:53:44;23.20;47.90
65048;DHT22;52089;51.362;-2.384;2022-10-16T13:18:02;21.70;47.80
65048;DHT22;52089;51.362;-2.384;2022-10-16T13:22:03;21.00;49.80
65048;DHT22;52089;51.362;-2.384;2022-10-16T13:26:15;21.10;50.80
65048;DHT22;52089;51.362;-2.384;2022-10-16T13:30:22;21.60;50.00
65048;DHT22;52089;51.362;-2.384;2022-10-16T13:34:12;22.00;50.30
65048;DHT22;52089;51.362;-2.384;2022-10-16T13:42:12;22.50;47.90
65048;DHT22;52089;51.362;-2.384;2022-10-16T13:46:07;22.60;48.10
65048;DHT22;52089;51.362;-2.384;2022-10-16T13:50:05;22.50;48.50
65048;DHT22;52089;51.362;-2.384;2022-10-16T13:53:52;22.70;48.40
65048;DHT22;52089;51.362;-2.384;2022-10-16T13:57:35;23.10;49.00
65048;DHT22;52089;51.362;-2.384;2022-10-16T14:01:18;23.60;48.30
65048;DHT22;52089;51.362;-2.384;2022-10-16T14:05:02;23.80;46.60
65048;DHT22;52089;51.362;-2.384;2022-10-16T14:13:12;23.70;46.00
65048;DHT22;52089;51.362;-2.384;2022-10-16T14:16:56;23.10;45.50
65048;DHT22;52089;51.362;-2.384;2022-10-16T14:20:38;22.30;46.70
65048;DHT22;52089;51.362;-2.384;2022-10-16T14:24:26;21.70;48.50
65048;DHT22;52089;51.362;-2.384;2022-10-16T14:28:17;21.20;49.20
65048;DHT22;52089;51.362;-2.384;2022-10-16T14:32:05;20.70;51.20
65048;DHT22;52089;51.362;-2.384;2022-10-16T14:39:53;19.90;53.20
65048;DHT22;52089;51.362;-2.384;2022-10-16T14:43:40;19.60;53.80
65048;DHT22;52089;51.362;-2.384;2022-10-16T14:47:23;19.40;55.00
65048;DHT22;52089;51.362;-2.384;2022-10-16T14:51:16;19.30;55.00
65048;DHT22;52089;51.362;-2.384;2022-10-16T14:55:05;19.10;56.50
65048;DHT22;52089;51.362;-2.384;2022-10-16T14:58:47;19.00;56.50
65048;DHT22;52089;51.362;-2.384;2022-10-16T15:02:34;18.90;57.00
65048;DHT22;52089;51.362;-2.384;2022-10-16T15:06:18;18.70;58.30
65048;DHT22;52089;51.362;-2.384;2022-10-16T15:09:59;18.50;58.20
65048;DHT22;52089;51.362;-2.384;2022-10-16T15:13:41;18.40;58.80
65048;DHT22;52089;51.362;-2.384;2022-10-16T15:17:23;18.20;59.40
65048;DHT22;52089;51.362;-2.384;2022-10-16T15:21:06;18.00;59.70
65048;DHT22;52089;51.362;-2.384;2022-10-16T15:24:49;17.80;60.50
65048;DHT22;52089;51.362;-2.384;2022-10-16T15:28:31;17.70;62.00
65048;DHT22;52089;51.362;-2.384;2022-10-16T15:32:13;17.60;62.00
65048;DHT22;52089;51.362;-2.384;2022-10-16T15:35:55;17.50;62.30
65048;DHT22;52089;51.362;-2.384;2022-10-16T15:39:36;17.50;63.10
65048;DHT22;52089;51.362;-2.384;2022-10-16T15:43:22;17.40;63.40
65048;DHT22;52089;51.362;-2.384;2022-10-16T15:47:03;17.30;63.80
65048;DHT22;52089;51.362;-2.384;2022-10-16T15:50:45;17.20;64.50
65048;DHT22;52089;51.362;-2.384;2022-10-16T15:54:27;17.20;65.30
65048;DHT22;52089;51.362;-2.384;2022-10-16T15:58:09;17.10;65.20
65048;DHT22;52089;51.362;-2.384;2022-10-16T16:01:51;17.10;66.50
65048;DHT22;52089;51.362;-2.384;2022-10-16T16:05:33;17.00;66.90
65048;DHT22;52089;51.362;-2.384;2022-10-16T16:09:16;16.90;67.50
65048;DHT22;52089;51.362;-2.384;2022-10-16T16:12:58;16.80;68.50
65048;DHT22;52089;51.362;-2.384;2022-10-16T16:16:41;16.70;69.00
65048;DHT22;52089;51.362;-2.384;2022-10-16T16:20:23;16.70;70.10
65048;DHT22;52089;51.362;-2.384;2022-10-16T16:24:05;16.60;70.70
65048;DHT22;52089;51.362;-2.384;2022-10-16T16:27:50;16.50;72.70
65048;DHT22;52089;51.362;-2.384;2022-10-16T16:31:32;16.30;74.10
65048;DHT22;52089;51.362;-2.384;2022-10-16T16:35:15;16.00;77.30
65048;DHT22;52089;51.362;-2.384;2022-10-16T16:38:59;15.80;77.40
65048;DHT22;52089;51.362;-2.384;2022-10-16T16:42:40;15.60;84.70
65048;DHT22;52089;51.362;-2.384;2022-10-16T16:46:22;15.40;83.60
65048;DHT22;52089;51.362;-2.384;2022-10-16T16:50:04;15.30;84.60
65048;DHT22;52089;51.362;-2.384;2022-10-16T16:53:51;15.10;86.70
65048;DHT22;52089;51.362;-2.384;2022-10-16T16:57:33;15.00;94.60
65048;DHT22;52089;51.362;-2.384;2022-10-16T17:01:15;14.90;90.90
65048;DHT22;52089;51.362;-2.384;2022-10-16T17:05:02;14.70;93.40
65048;DHT22;52089;51.362;-2.384;2022-10-16T17:08:44;14.60;95.40
65048;DHT22;52089;51.362;-2.384;2022-10-16T17:12:26;14.60;96.30
65048;DHT22;52089;51.362;-2.384;2022-10-16T17:16:08;14.50;96.00
65048;DHT22;52089;51.362;-2.384;2022-10-16T17:19:51;14.40;98.10
65048;DHT22;52089;51.362;-2.384;2022-10-16T17:23:34;14.40;99.90
65048;DHT22;52089;51.362;-2.384;2022-10-16T17:27:17;14.40;99.90
65048;DHT22;52089;51.362;-2.384;2022-10-16T17:31:18;14.30;99.90
65048;DHT22;52089;51.362;-2.384;2022-10-16T17:35:00;14.20;99.90
65048;DHT22;52089;51.362;-2.384;2022-10-16T17:38:43;14.20;99.90
65048;DHT22;52089;51.362;-2.384;2022-10-16T17:42:25;14.10;99.90
65048;DHT22;52089;51.362;-2.384;2022-10-16T17:46:08;14.00;99.90
65048;DHT22;52089;51.362;-2.384;2022-10-16T17:49:50;13.90;99.90
65048;DHT22;52089;51.362;-2.384;2022-10-16T17:53:32;13.90;99.90
65048;DHT22;52089;51.362;-2.384;2022-10-16T17:57:14;13.80;99.90
65048;DHT22;52089;51.362;-2.384;2022-10-16T18:00:56;13.70;99.90
65048;DHT22;52089;51.362;-2.384;2022-10-16T18:04:38;13.70;99.90
65048;DHT22;52089;51.362;-2.384;2022-10-16T18:08:20;13.70;99.90
65048;DHT22;52089;51.362;-2.384;2022-10-16T18:12:05;13.70;99.90
65048;DHT22;52089;51.362;-2.384;2022-10-16T18:15:47;13.70;99.90
65048;DHT22;52089;51.362;-2.384;2022-10-16T18:19:39;13.70;99.90
65048;DHT22;52089;51.362;-2.384;2022-10-16T18:23:21;13.70;99.90
65048;DHT22;52089;51.362;-2.384;2022-10-16T18:27:03;13.80;99.90
65048;DHT22;52089;51.362;-2.384;2022-10-16T18:30:44;13.80;99.90
65048;DHT22;52089;51.362;-2.384;2022-10-16T18:34:29;13.80;99.90
65048;DHT22;52089;51.362;-2.384;2022-10-16T18:38:10;13.80;99.90
65048;DHT22;52089;51.362;-2.384;2022-10-16T18:41:52;13.90;99.90
65048;DHT22;52089;51.362;-2.384;2022-10-16T18:45:42;13.90;99.90
65048;DHT22;52089;51.362;-2.384;2022-10-16T18:49:24;14.00;99.90
65048;DHT22;52089;51.362;-2.384;2022-10-16T18:53:06;14.00;99.90
65048;DHT22;52089;51.362;-2.384;2022-10-16T18:56:51;14.00;99.90
65048;DHT22;52089;51.362;-2.384;2022-10-16T19:00:33;14.00;99.90
65048;DHT22;52089;51.362;-2.384;2022-10-16T19:04:16;14.10;99.90
65048;DHT22;52089;51.362;-2.384;2022-10-16T19:07:58;14.20;99.90
65048;DHT22;52089;51.362;-2.384;2022-10-16T19:11:40;14.30;99.90
65048;DHT22;52089;51.362;-2.384;2022-10-16T19:15:22;14.30;99.90
65048;DHT22;52089;51.362;-2.384;2022-10-16T19:19:06;14.40;99.90
65048;DHT22;52089;51.362;-2.384;2022-10-16T19:22:48;14.40;99.90
65048;DHT22;52089;51.362;-2.384;2022-10-16T19:26:39;14.40;99.90
65048;DHT22;52089;51.362;-2.384;2022-10-16T19:30:22;14.50;99.90
65048;DHT22;52089;51.362;-2.384;2022-10-16T19:34:05;14.50;99.90
65048;DHT22;52089;51.362;-2.384;2022-10-16T19:37:49;14.50;99.90
65048;DHT22;52089;51.362;-2.384;2022-10-16T19:41:32;14.60;99.90
65048;DHT22;52089;51.362;-2.384;2022-10-16T19:45:14;14.60;99.90
65048;DHT22;52089;51.362;-2.384;2022-10-16T19:48:59;14.70;99.90
65048;DHT22;52089;51.362;-2.384;2022-10-16T19:52:41;14.70;99.90
65048;DHT22;52089;51.362;-2.384;2022-10-16T19:56:25;14.80;99.90
65048;DHT22;52089;51.362;-2.384;2022-10-16T20:00:08;14.90;99.90
65048;DHT22;52089;51.362;-2.384;2022-10-16T20:03:51;14.90;99.90
65048;DHT22;52089;51.362;-2.384;2022-10-16T20:07:32;15.00;99.90
65048;DHT22;52089;51.362;-2.384;2022-10-16T20:11:17;15.10;99.90
65048;DHT22;52089;51.362;-2.384;2022-10-16T20:14:59;15.20;99.90
65048;DHT22;52089;51.362;-2.384;2022-10-16T20:18:41;15.20;99.90
65048;DHT22;52089;51.362;-2.384;2022-10-16T20:22:23;15.30;99.90
65048;DHT22;52089;51.362;-2.384;2022-10-16T20:26:05;15.40;99.90
65048;DHT22;52089;51.362;-2.384;2022-10-16T20:29:47;15.50;99.90
65048;DHT22;52089;51.362;-2.384;2022-10-16T20:33:29;15.50;99.90
65048;DHT22;52089;51.362;-2.384;2022-10-16T20:37:11;15.60;99.90
65048;DHT22;52089;51.362;-2.384;2022-10-16T20:40:53;15.60;99.90
65048;DHT22;52089;51.362;-2.384;2022-10-16T20:44:35;15.60;99.90
65048;DHT22;52089;51.362;-2.384;2022-10-16T20:48:17;15.60;99.90
65048;DHT22;52089;51.362;-2.384;2022-10-16T20:51:59;15.60;99.90
65048;DHT22;52089;51.362;-2.384;2022-10-16T20:55:40;15.50;99.90
65048;DHT22;52089;51.362;-2.384;2022-10-16T20:59:22;15.50;99.90
65048;DHT22;52089;51.362;-2.384;2022-10-16T21:03:04;15.50;99.90
65048;DHT22;52089;51.362;-2.384;2022-10-16T21:06:46;15.40;99.90
65048;DHT22;52089;51.362;-2.384;2022-10-16T21:10:28;15.40;99.90
65048;DHT22;52089;51.362;-2.384;2022-10-16T21:14:10;15.40;99.90
65048;DHT22;52089;51.362;-2.384;2022-10-16T21:17:52;15.50;99.90
65048;DHT22;52089;51.362;-2.384;2022-10-16T21:21:36;15.40;99.90
65048;DHT22;52089;51.362;-2.384;2022-10-16T21:25:19;15.40;99.90
65048;DHT22;52089;51.362;-2.384;2022-10-16T21:29:03;15.50;99.90
65048;DHT22;52089;51.362;-2.384;2022-10-16T21:32:45;15.50;99.90
65048;DHT22;52089;51.362;-2.384;2022-10-16T21:36:32;15.60;99.90
65048;DHT22;52089;51.362;-2.384;2022-10-16T21:40:15;15.50;99.90
65048;DHT22;52089;51.362;-2.384;2022-10-16T21:43:58;15.60;99.90
65048;DHT22;52089;51.362;-2.384;2022-10-16T21:47:40;15.50;99.90
65048;DHT22;52089;51.362;-2.384;2022-10-16T21:51:29;15.60;99.90
65048;DHT22;52089;51.362;-2.384;2022-10-16T21:55:11;15.60;99.90
65048;DHT22;52089;51.362;-2.384;2022-10-16T21:58:53;15.50;99.90
65048;DHT22;52089;51.362;-2.384;2022-10-16T22:02:35;15.50;99.90
65048;DHT22;52089;51.362;-2.384;2022-10-16T22:06:19;15.50;99.90
65048;DHT22;52089;51.362;-2.384;2022-10-16T22:10:03;15.50;99.90
65048;DHT22;52089;51.362;-2.384;2022-10-16T22:13:45;15.50;99.90
65048;DHT22;52089;51.362;-2.384;2022-10-16T22:17:28;15.50;99.90
65048;DHT22;52089;51.362;-2.384;2022-10-16T22:21:10;15.50;99.90
65048;DHT22;52089;51.362;-2.384;2022-10-16T22:24:52;15.50;99.90
65048;DHT22;52089;51.362;-2.384;2022-10-16T22:28:34;15.50;99.90
65048;DHT22;52089;51.362;-2.384;2022-10-16T22:32:17;15.50;99.90
65048;DHT22;52089;51.362;-2.384;2022-10-16T22:36:01;15.50;99.90
65048;DHT22;52089;51.362;-2.384;2022-10-16T22:39:43;15.50;99.90
65048;DHT22;52089;51.362;-2.384;2022-10-16T22:43:25;15.50;99.90
65048;DHT22;52089;51.362;-2.384;2022-10-16T22:47:07;15.50;99.90
65048;DHT22;52089;51.362;-2.384;2022-10-16T22:50:49;15.50;99.90
65048;DHT22;52089;51.362;-2.384;2022-10-16T22:54:30;15.50;99.90
65048;DHT22;52089;51.362;-2.384;2022-10-16T22:58:12;15.50;99.90
65048;DHT22;52089;51.362;-2.384;2022-10-16T23:01:54;15.50;99.90
65048;DHT22;52089;51.362;-2.384;2022-10-16T23:05:40;15.40;99.90
65048;DHT22;52089;51.362;-2.384;2022-10-16T23:09:22;15.30;99.90
65048;DHT22;52089;51.362;-2.384;2022-10-16T23:13:04;15.30;99.90
65048;DHT22;52089;51.362;-2.384;2022-10-16T23:16:46;15.20;99.90
65048;DHT22;52089;51.362;-2.384;2022-10-16T23:20:28;15.20;99.90
65048;DHT22;52089;51.362;-2.384;2022-10-16T23:24:10;15.20;99.90
65048;DHT22;52089;51.362;-2.384;2022-10-16T23:27:55;15.20;99.90
65048;DHT22;52089;51.362;-2.384;2022-10-16T23:31:37;15.10;99.90
65048;DHT22;52089;51.362;-2.384;2022-10-16T23:35:19;15.10;99.90
65048;DHT22;52089;51.362;-2.384;2022-10-16T23:39:00;15.10;99.90
65048;DHT22;52089;51.362;-2.384;2022-10-16T23:42:42;15.00;99.90
65048;DHT22;52089;51.362;-2.384;2022-10-16T23:46:24;15.00;99.90
65048;DHT22;52089;51.362;-2.384;2022-10-16T23:50:07;15.00;99.90
65048;DHT22;52089;51.362;-2.384;2022-10-16T23:53:50;15.00;99.90
65048;DHT22;52089;51.362;-2.384;2022-10-16T23:57:33;15.00;99.90
